Bowman, North Dakota
Current Conditions -  °F | °C
As of 11:53 AM on Thursday 30 Oct 2014 (Local Time) from KHEI Reporting Station
Overcast Overcast  
Wind Chill: 29°   Ceiling: 1100
Heat Index: 37°   Visibility: 8mi
Dew Point: 31°   Wind: 12mph
Humidity: 79%   Direction: 350°N
Pressure: 30.38"   Gusts: NA
Location:  46.18°N, 103.39°W
Report Text: KHEI 301753Z AUTO 35010KT 8SM OVC011 03/M01 A3038 RMK AO2 SLP309 T00281006 10028 20000 51021
Loading
Personal Weather Stations






























Interactive Weather Map
Tropical Storm Tracking
New forecast layout! Learn more

10-Day Weather Forecast

Advertisements
Track Severe Weather on mobile